createdAt,value
2022-12-19T00:00:44.982Z,101779.72
2022-12-19T00:03:12.036Z,101766.66
2022-12-19T00:05:39.510Z,101770.22
2022-12-19T00:08:17.262Z,101749.22
2022-12-19T00:10:53.892Z,101734.44
2022-12-19T00:13:22.197Z,101727.44
2022-12-19T00:15:48.986Z,101716.13
2022-12-19T00:18:15.822Z,101710.88
2022-12-19T00:20:42.543Z,101707.34
2022-12-19T00:23:09.569Z,101703.03
2022-12-19T00:25:36.356Z,101706.53
2022-12-19T00:28:06.716Z,101708.16
2022-12-19T00:30:34.891Z,101704.69
2022-12-19T00:33:01.631Z,101707.25
2022-12-19T00:35:28.435Z,101687.19
2022-12-19T00:37:55.301Z,101681.06
2022-12-19T00:40:22.556Z,101649.91
2022-12-19T00:42:53.703Z,101671.44
2022-12-19T00:45:20.993Z,101672.34
2022-12-19T00:47:49.130Z,101680.09
2022-12-19T00:50:16.173Z,101683.47
2022-12-19T00:52:44.486Z,101667.72
2022-12-19T00:55:18.536Z,101670.22
2022-12-19T00:57:46.591Z,101657.19
2022-12-19T01:00:15.132Z,101651.00
2022-12-19T01:02:42.126Z,101659.72
2022-12-19T01:05:11.601Z,101656.16
2022-12-19T01:07:40.849Z,101637.13
2022-12-19T01:10:08.734Z,101638.63
2022-12-19T01:12:47.606Z,101651.66
2022-12-19T01:15:16.806Z,101656.00
2022-12-19T01:17:45.013Z,101633.16
2022-12-19T01:20:16.611Z,101625.28
2022-12-19T01:22:45.646Z,101614.72
2022-12-19T01:25:14.657Z,101613.81
2022-12-19T01:27:41.818Z,101610.25
2022-12-19T01:30:10.438Z,101602.34
2022-12-19T01:32:38.327Z,101585.75
2022-12-19T01:35:06.057Z,101592.66
2022-12-19T01:37:38.154Z,101591.78
2022-12-19T01:40:06.002Z,101590.97
2022-12-19T01:42:35.910Z,101599.53
2022-12-19T01:45:30.362Z,101595.13
2022-12-19T01:48:17.497Z,101574.19
2022-12-19T01:51:00.803Z,101585.47
2022-12-19T01:53:49.065Z,101580.16
2022-12-19T01:56:19.731Z,101578.34
2022-12-19T01:58:50.610Z,101575.66
2022-12-19T02:01:23.467Z,101573.91
2022-12-19T02:03:51.194Z,101572.91
2022-12-19T02:06:19.361Z,101568.53
2022-12-19T02:08:48.980Z,101561.47
2022-12-19T02:11:15.840Z,101570.94
2022-12-19T02:13:43.616Z,101563.03
2022-12-19T02:16:30.093Z,101560.31
2022-12-19T02:19:12.454Z,101565.41
2022-12-19T02:21:48.690Z,101564.53
2022-12-19T02:24:42.517Z,101550.56
2022-12-19T02:27:40.241Z,101546.09
2022-12-19T02:30:13.432Z,101537.28
2022-12-19T02:32:54.338Z,101530.28
2022-12-19T02:35:30.298Z,101527.69
2022-12-19T02:38:09.403Z,101523.16
2022-12-19T02:40:43.135Z,101510.00
2022-12-19T02:43:15.892Z,101511.78
2022-12-19T02:45:43.669Z,101496.81
2022-12-19T02:48:17.605Z,101488.97
2022-12-19T02:50:50.329Z,101498.44
2022-12-19T02:53:22.387Z,101481.81
2022-12-19T02:56:18.165Z,101503.56
2022-12-19T02:59:06.815Z,101499.22
2022-12-19T03:01:46.196Z,101489.38
2022-12-19T03:04:27.819Z,101488.38
2022-12-19T03:07:02.348Z,101483.06
2022-12-19T03:09:40.761Z,101481.16
2022-12-19T03:12:17.300Z,101483.72
2022-12-19T03:14:45.970Z,101476.78
2022-12-19T03:17:13.059Z,101489.00
2022-12-19T03:19:41.823Z,101486.97
2022-12-19T03:22:08.779Z,101472.88
2022-12-19T03:24:35.935Z,101463.06
2022-12-19T03:27:09.160Z,101451.59
2022-12-19T03:29:39.977Z,101459.41
2022-12-19T03:32:16.228Z,101456.69
2022-12-19T03:34:49.250Z,101457.19
2022-12-19T03:37:19.204Z,101452.81
2022-12-19T03:39:50.007Z,101447.47
2022-12-19T03:42:37.692Z,101418.16
2022-12-19T03:45:07.373Z,101431.63
2022-12-19T03:47:39.529Z,101446.50
2022-12-19T03:50:09.397Z,101439.38
2022-12-19T03:52:45.444Z,101443.78
2022-12-19T03:55:18.546Z,101430.47
2022-12-19T03:57:50.799Z,101429.41
2022-12-19T04:00:19.084Z,101431.22
2022-12-19T04:02:51.053Z,101433.84
2022-12-19T04:05:23.341Z,101419.06
2022-12-19T04:07:53.797Z,101418.78
2022-12-19T04:10:22.778Z,101411.88
2022-12-19T04:13:02.450Z,101401.41
2022-12-19T04:15:35.152Z,101415.28
2022-12-19T04:18:06.766Z,101409.22
2022-12-19T04:20:39.583Z,101407.47
2022-12-19T04:23:18.042Z,101386.50
2022-12-19T04:25:48.405Z,101390.75
2022-12-19T04:28:20.378Z,101395.06
2022-12-19T04:30:48.886Z,101395.91
2022-12-19T04:33:15.770Z,101389.63
2022-12-19T04:35:44.293Z,101382.47
2022-12-19T04:38:11.266Z,101385.97
2022-12-19T04:40:41.460Z,101380.72
2022-12-19T04:43:08.896Z,101384.00
2022-12-19T04:45:35.968Z,101376.13
2022-12-19T04:48:04.095Z,101375.34
2022-12-19T04:50:32.983Z,101375.94
2022-12-19T04:53:01.796Z,101366.88
2022-12-19T04:55:28.608Z,101373.91
2022-12-19T04:57:55.610Z,101372.00
2022-12-19T05:00:22.428Z,101374.63
2022-12-19T05:02:49.394Z,101369.22
2022-12-19T05:05:18.199Z,101371.03
2022-12-19T05:07:45.082Z,101368.28
2022-12-19T05:10:13.581Z,101352.50
2022-12-19T05:12:40.387Z,101357.56
2022-12-19T05:15:08.291Z,101352.19
2022-12-19T05:17:35.321Z,101343.19
2022-12-19T05:20:02.336Z,101343.19
2022-12-19T05:22:29.194Z,101332.47
2022-12-19T05:24:55.914Z,101339.91
2022-12-19T05:27:24.417Z,101329.16
2022-12-19T05:29:51.158Z,101335.97
2022-12-19T05:32:17.965Z,101336.59
2022-12-19T05:34:44.866Z,101332.91
2022-12-19T05:37:11.694Z,101332.69
2022-12-19T05:39:38.418Z,101330.88
2022-12-19T05:42:08.470Z,101335.13
2022-12-19T05:44:40.233Z,101330.56
2022-12-19T05:47:07.066Z,101334.16
2022-12-19T05:49:33.847Z,101323.28
2022-12-19T05:52:00.622Z,101332.06
2022-12-19T05:54:27.474Z,101321.44
2022-12-19T05:56:54.236Z,101321.28
2022-12-19T05:59:21.003Z,101329.22
2022-12-19T06:01:49.460Z,101330.97
2022-12-19T06:04:16.396Z,101335.13
2022-12-19T06:06:43.595Z,101334.31
2022-12-19T06:09:10.443Z,101332.69
2022-12-19T06:11:37.269Z,101327.94
2022-12-19T06:14:09.146Z,101322.44
2022-12-19T06:16:36.041Z,101323.97
2022-12-19T06:19:04.462Z,101316.16
2022-12-19T06:21:31.417Z,101316.81
2022-12-19T06:23:58.312Z,101313.13
2022-12-19T06:26:25.462Z,101308.66
2022-12-19T06:28:53.472Z,101327.88
2022-12-19T06:31:23.007Z,101326.09
2022-12-19T06:34:54.936Z,101315.44
2022-12-19T06:43:24.247Z,101303.59
2022-12-19T06:50:15.199Z,101301.34
2022-12-19T06:52:43.705Z,101293.97
2022-12-19T06:55:10.964Z,101298.22
2022-12-19T06:57:38.102Z,101304.81
2022-12-19T07:00:06.374Z,101311.75
2022-12-19T07:02:34.661Z,101319.38
2022-12-19T07:05:11.935Z,101319.88
2022-12-19T07:07:39.134Z,101309.22
2022-12-19T07:10:09.410Z,101309.66
2022-12-19T07:12:36.589Z,101304.19
2022-12-19T07:15:05.048Z,101308.53
2022-12-19T07:17:31.914Z,101324.03
2022-12-19T07:19:59.543Z,101331.69
2022-12-19T07:22:30.966Z,101327.88
2022-12-19T07:24:58.946Z,101322.66
2022-12-19T07:27:35.223Z,101323.38
2022-12-19T07:30:03.343Z,101326.84
2022-12-19T07:32:30.325Z,101324.47
2022-12-19T07:34:57.157Z,101329.47
2022-12-19T07:37:24.113Z,101332.91
2022-12-19T07:39:53.037Z,101326.03
2022-12-19T07:42:19.728Z,101327.22
2022-12-19T07:44:47.961Z,101327.22
2022-12-19T07:47:14.737Z,101329.59
2022-12-19T07:49:41.637Z,101327.03
2022-12-19T07:52:08.723Z,101326.72
2022-12-19T07:54:35.533Z,101318.97
2022-12-19T07:59:49.546Z,101328.81
2022-12-19T08:02:16.433Z,101343.31
2022-12-19T08:04:43.244Z,101341.81
2022-12-19T08:07:09.960Z,101349.53
2022-12-19T08:09:36.639Z,101342.34
2022-12-19T08:12:04.354Z,101348.47
2022-12-19T08:14:31.063Z,101345.69
2022-12-19T08:19:46.131Z,101317.22
2022-12-19T08:22:12.825Z,101333.69
2022-12-19T08:24:39.882Z,101339.00
2022-12-19T08:27:06.534Z,101321.97
2022-12-19T08:29:33.335Z,101344.66
2022-12-19T08:32:01.810Z,101328.94
2022-12-19T08:34:28.817Z,101360.56
2022-12-19T08:36:55.787Z,101355.13
2022-12-19T08:39:22.633Z,101351.56
2022-12-19T08:41:49.502Z,101348.78
2022-12-19T08:44:16.523Z,101352.22
2022-12-19T08:46:49.419Z,101349.41
2022-12-19T08:49:19.980Z,101329.78
2022-12-19T08:51:46.929Z,101350.72
2022-12-19T08:54:13.740Z,101346.53
2022-12-19T08:56:43.568Z,101340.13
2022-12-19T08:59:13.430Z,101339.84
2022-12-19T09:01:43.081Z,101338.22
2022-12-19T09:05:57.273Z,101342.91
2022-12-19T09:06:58.555Z,101344.94
2022-12-19T09:09:25.360Z,101346.56
2022-12-19T09:11:52.255Z,101346.81
2022-12-19T09:14:21.083Z,101349.34
2022-12-19T09:16:48.604Z,101344.22
2022-12-19T09:19:16.731Z,101345.34
2022-12-19T09:21:43.547Z,101344.44
2022-12-19T09:24:11.885Z,101340.78
2022-12-19T09:26:39.553Z,101336.25
2022-12-19T09:29:19.879Z,101339.75
2022-12-19T09:31:51.235Z,101338.47
2022-12-19T09:34:23.438Z,101337.53
2022-12-19T09:36:51.686Z,101334.44
2022-12-19T09:39:20.341Z,101355.59
2022-12-19T09:42:13.526Z,101344.09
2022-12-19T09:44:57.784Z,101350.25
2022-12-19T09:47:27.238Z,101356.25
2022-12-19T09:49:54.534Z,101355.72
2022-12-19T09:52:26.894Z,101363.66
2022-12-19T09:55:03.969Z,101371.31
2022-12-19T09:57:37.495Z,101347.38
2022-12-19T10:00:07.361Z,101352.63
2022-12-19T10:02:42.612Z,101359.47
2022-12-19T10:05:30.150Z,101353.88
2022-12-19T10:08:09.222Z,101359.94
2022-12-19T10:12:37.495Z,101355.97
2022-12-19T10:13:46.765Z,101347.34
2022-12-19T10:16:29.616Z,101344.97
2022-12-19T10:19:01.712Z,101358.75
2022-12-19T10:22:15.741Z,101351.22
2022-12-19T10:25:08.086Z,101357.47
2022-12-19T10:27:59.486Z,101351.09
2022-12-19T10:30:29.090Z,101365.97
2022-12-19T10:33:12.193Z,101378.13
2022-12-19T10:35:54.393Z,101360.88
2022-12-19T10:38:27.582Z,101371.56
2022-12-19T10:41:10.996Z,101368.81
2022-12-19T10:43:48.903Z,101353.97
2022-12-19T10:46:20.221Z,101371.81
2022-12-19T10:48:51.090Z,101370.06
2022-12-19T10:51:23.725Z,101364.06
2022-12-19T10:53:55.257Z,101344.69
2022-12-19T10:56:25.457Z,101361.22
2022-12-19T10:58:58.835Z,101360.56
2022-12-19T11:01:29.270Z,101372.88
2022-12-19T11:04:15.544Z,101358.88
2022-12-19T11:06:47.030Z,101360.56
2022-12-19T11:09:28.494Z,101354.19
2022-12-19T11:13:57.500Z,101350.34
2022-12-19T11:20:36.552Z,101351.00
2022-12-19T11:28:32.350Z,101342.78
2022-12-19T11:29:18.825Z,101347.31
2022-12-19T11:29:33.804Z,101343.59
2022-12-19T11:29:54.356Z,101338.50
2022-12-19T11:30:45.510Z,101333.59
2022-12-19T11:34:29.404Z,101332.03
2022-12-19T11:37:01.755Z,101335.16
2022-12-19T11:39:35.319Z,101341.47
2022-12-19T11:42:09.028Z,101324.72
2022-12-19T11:44:41.900Z,101329.00
2022-12-19T11:47:20.386Z,101324.38
2022-12-19T11:49:54.767Z,101313.03
2022-12-19T11:53:03.456Z,101310.69
2022-12-19T11:55:26.096Z,101338.34
2022-12-19T11:57:54.099Z,101333.34
2022-12-19T12:00:23.496Z,101325.75
2022-12-19T12:03:14.651Z,101338.19
2022-12-19T12:05:45.969Z,101340.06
2022-12-19T12:11:02.876Z,101332.13
2022-12-19T12:16:44.054Z,101338.88
2022-12-19T12:24:10.591Z,101334.69
2022-12-19T12:28:46.565Z,101329.84
2022-12-19T12:31:12.075Z,101327.25
2022-12-19T12:31:38.591Z,101310.84
2022-12-19T12:31:45.498Z,101316.75
2022-12-19T12:31:52.579Z,101326.19
2022-12-19T12:35:47.065Z,101317.09
2022-12-19T12:37:54.118Z,101295.97
2022-12-19T12:38:27.272Z,101314.13
2022-12-19T12:41:09.980Z,101310.75
2022-12-19T12:43:53.007Z,101309.69
2022-12-19T12:46:24.904Z,101308.97
2022-12-19T12:48:56.177Z,101306.16
2022-12-19T12:51:24.722Z,101310.84
2022-12-19T12:54:07.355Z,101310.84
2022-12-19T12:56:35.264Z,101310.69
2022-12-19T12:59:24.041Z,101307.88
2022-12-19T13:01:53.575Z,101308.66
2022-12-19T13:04:25.953Z,101301.56
2022-12-19T13:07:25.189Z,101302.41
2022-12-19T13:10:07.118Z,101294.13
2022-12-19T13:12:53.024Z,101294.75
2022-12-19T13:18:34.991Z,101271.75
2022-12-19T13:21:05.068Z,101286.78
2022-12-19T13:23:47.308Z,101269.03
2022-12-19T13:26:38.074Z,101276.00
2022-12-19T13:29:28.093Z,101268.53
2022-12-19T13:32:12.072Z,101269.28
2022-12-19T13:34:39.407Z,101257.22
2022-12-19T13:39:49.939Z,101264.94
2022-12-19T13:40:30.626Z,101252.00
2022-12-19T13:43:31.054Z,101241.22
2022-12-19T13:46:00.855Z,101246.44
2022-12-19T13:48:31.995Z,101252.69
2022-12-19T13:51:03.483Z,101244.66
2022-12-19T13:53:30.700Z,101247.31
2022-12-19T13:56:00.493Z,101244.84
2022-12-19T13:58:32.089Z,101235.00
2022-12-19T14:01:08.552Z,101228.94
2022-12-19T14:03:50.367Z,101235.50
2022-12-19T14:06:20.492Z,101239.88
2022-12-19T14:09:37.451Z,101232.75
2022-12-19T14:12:23.855Z,101236.59
2022-12-19T14:15:02.032Z,101241.84
2022-12-19T14:17:37.059Z,101246.44
2022-12-19T14:22:01.798Z,101235.22
2022-12-19T14:23:04.743Z,101235.84
2022-12-19T14:28:16.858Z,101226.25
2022-12-19T14:28:31.127Z,101233.94
2022-12-19T14:31:02.704Z,101226.84
2022-12-19T14:33:44.567Z,101229.50
2022-12-19T14:36:26.120Z,101228.06
2022-12-19T14:39:27.429Z,101226.44
2022-12-19T14:42:03.094Z,101228.31
2022-12-19T14:52:25.564Z,101237.91
2022-12-19T14:54:04.327Z,101243.03
2022-12-19T14:54:15.171Z,101221.22
2022-12-19T14:54:44.436Z,101248.53
2022-12-19T14:58:58.289Z,101246.28
2022-12-19T15:01:27.368Z,101250.13
2022-12-19T15:04:50.817Z,101248.59
2022-12-19T15:07:07.551Z,101260.97
2022-12-19T15:11:00.148Z,101261.59
2022-12-19T15:14:48.756Z,101259.63
2022-12-19T15:15:45.527Z,101252.09
2022-12-19T15:18:23.387Z,101245.34
2022-12-19T15:20:52.913Z,101243.28
2022-12-19T15:23:22.672Z,101233.78
2022-12-19T15:26:07.317Z,101223.19
2022-12-19T15:28:39.525Z,101233.13
2022-12-19T15:31:14.286Z,101233.72
2022-12-19T15:34:06.816Z,101227.81
2022-12-19T15:36:29.497Z,101240.63
2022-12-19T15:38:56.503Z,101234.81
2022-12-19T15:41:24.797Z,101235.84
2022-12-19T15:44:03.690Z,101232.09
2022-12-19T15:46:31.949Z,101247.31
2022-12-19T15:48:58.955Z,101243.63
2022-12-19T15:51:25.962Z,101229.69
2022-12-19T15:53:57.001Z,101226.25
2022-12-19T15:56:35.158Z,101220.00
2022-12-19T15:59:03.604Z,101211.19
2022-12-19T16:01:33.378Z,101225.69
2022-12-19T16:04:01.483Z,101219.41
2022-12-19T16:06:29.540Z,101229.13
2022-12-19T16:08:58.395Z,101222.03
2022-12-19T16:11:25.303Z,101226.38
2022-12-19T16:13:55.852Z,101230.75
2022-12-19T16:16:23.056Z,101222.97
2022-12-19T16:18:49.976Z,101238.88
2022-12-19T16:21:20.221Z,101234.75
2022-12-19T16:23:47.547Z,101244.81
2022-12-19T16:26:32.944Z,101222.78
2022-12-19T16:29:00.762Z,101216.78
2022-12-19T16:31:28.158Z,101230.25
2022-12-19T16:33:56.510Z,101220.25
2022-12-19T16:36:23.524Z,101218.69
2022-12-19T16:38:50.608Z,101219.44
2022-12-19T16:41:22.890Z,101231.78
2022-12-19T16:43:50.756Z,101240.47
2022-12-19T16:46:19.790Z,101230.50
2022-12-19T16:48:47.542Z,101228.03
2022-12-19T16:51:19.595Z,101221.44
2022-12-19T16:53:47.323Z,101219.13
2022-12-19T16:56:35.072Z,101205.34
2022-12-19T16:59:06.149Z,101222.81
2022-12-19T17:01:33.454Z,101221.63
2022-12-19T17:04:00.820Z,101217.28
2022-12-19T17:06:27.748Z,101207.13
2022-12-19T17:08:54.746Z,101216.28
2022-12-19T17:11:24.420Z,101217.22
2022-12-19T17:13:53.345Z,101220.31
2022-12-19T17:16:20.910Z,101219.19
2022-12-19T17:18:48.641Z,101209.63
2022-12-19T17:21:17.979Z,101215.91
2022-12-19T17:23:46.367Z,101218.53
2022-12-19T17:26:17.582Z,101220.59
2022-12-19T17:28:48.389Z,101226.97
2022-12-19T17:31:22.316Z,101221.34
2022-12-19T17:33:49.614Z,101214.53
2022-12-19T17:36:21.318Z,101201.59
2022-12-19T17:38:53.081Z,101204.94
2022-12-19T17:41:20.153Z,101221.06
2022-12-19T17:43:48.004Z,101211.00
2022-12-19T17:46:21.916Z,101194.44
2022-12-19T17:48:52.046Z,101187.19
2022-12-19T17:51:21.462Z,101189.06
2022-12-19T17:53:49.395Z,101185.78
2022-12-19T17:56:18.893Z,101196.78
2022-12-19T17:58:45.807Z,101188.84
2022-12-19T18:01:19.803Z,101197.22
2022-12-19T18:03:47.826Z,101194.66
2022-12-19T18:06:15.958Z,101197.75
2022-12-19T18:08:44.501Z,101203.13
2022-12-19T18:11:18.889Z,101215.28
2022-12-19T18:13:47.666Z,101213.63
2022-12-19T18:16:18.390Z,101202.66
2022-12-19T18:18:47.146Z,101217.63
2022-12-19T18:21:22.594Z,101221.03
2022-12-19T18:23:49.955Z,101211.00
2022-12-19T18:26:16.820Z,101218.31
2022-12-19T18:28:44.096Z,101223.78
2022-12-19T18:31:15.849Z,101219.63
2022-12-19T18:33:45.775Z,101215.34
2022-12-19T18:36:19.902Z,101230.59
2022-12-19T18:38:48.784Z,101217.78
2022-12-19T18:41:17.081Z,101220.09
2022-12-19T18:43:44.643Z,101213.63
2022-12-19T18:46:13.785Z,101231.72
2022-12-19T18:48:42.100Z,101220.25
2022-12-19T18:51:14.560Z,101231.06
2022-12-19T18:53:44.381Z,101249.66
2022-12-19T18:56:11.499Z,101254.94
2022-12-19T18:58:38.935Z,101262.03
2022-12-19T19:01:11.726Z,101248.88
2022-12-19T19:03:40.784Z,101242.19
2022-12-19T19:06:17.225Z,101234.09
2022-12-19T19:08:45.442Z,101243.53
2022-12-19T19:11:27.847Z,101238.78
2022-12-19T19:13:54.740Z,101232.41
2022-12-19T19:16:24.686Z,101238.94
2022-12-19T19:18:53.528Z,101235.50
2022-12-19T19:21:22.729Z,101239.13
2022-12-19T19:23:55.863Z,101240.91
2022-12-19T19:26:22.657Z,101249.84
2022-12-19T19:28:52.520Z,101255.06
2022-12-19T19:31:23.365Z,101263.84
2022-12-19T19:33:54.368Z,101259.75
2022-12-19T19:36:25.719Z,101262.13
2022-12-19T19:38:56.174Z,101268.59
2022-12-19T19:41:24.294Z,101267.06
2022-12-19T19:43:51.253Z,101267.13
2022-12-19T19:46:18.224Z,101265.88
2022-12-19T19:48:45.126Z,101261.38
2022-12-19T19:51:15.503Z,101264.63
2022-12-19T19:53:42.309Z,101266.94
2022-12-19T19:56:10.983Z,101263.91
2022-12-19T19:58:37.937Z,101271.75
2022-12-19T20:01:08.261Z,101260.78
2022-12-19T20:03:35.272Z,101265.00
2022-12-19T20:06:02.464Z,101251.66
2022-12-19T20:08:38.637Z,101245.19
2022-12-19T20:11:06.492Z,101255.53
2022-12-19T20:13:42.141Z,101257.06
2022-12-19T20:16:10.129Z,101248.72
2022-12-19T20:18:37.980Z,101249.59
2022-12-19T20:21:12.311Z,101253.94
2022-12-19T20:23:41.404Z,101236.44
2022-12-19T20:26:08.342Z,101240.63
2022-12-19T20:28:42.327Z,101238.75
2022-12-19T20:31:14.838Z,101250.56
2022-12-19T20:33:41.767Z,101256.66
2022-12-19T20:36:10.975Z,101254.19
2022-12-19T20:38:38.040Z,101254.19
2022-12-19T20:41:05.618Z,101258.13
2022-12-19T20:43:32.646Z,101258.38
2022-12-19T20:46:05.993Z,101250.44
2022-12-19T20:48:33.296Z,101246.31
2022-12-19T20:51:04.868Z,101238.63
2022-12-19T20:53:32.304Z,101233.38
2022-12-19T20:56:00.797Z,101236.38
2022-12-19T20:58:29.268Z,101243.81
2022-12-19T21:00:56.900Z,101228.19
2022-12-19T21:03:28.606Z,101217.41
2022-12-19T21:05:57.760Z,101231.72
2022-12-19T21:08:25.593Z,101234.88
2022-12-19T21:10:52.999Z,101254.38
2022-12-19T21:13:20.728Z,101250.59
2022-12-19T21:15:52.261Z,101257.44
2022-12-19T21:18:19.541Z,101265.06
2022-12-19T21:20:48.137Z,101262.06
2022-12-19T21:23:15.025Z,101259.41
2022-12-19T21:25:42.053Z,101267.94
2022-12-19T21:28:09.215Z,101256.41
2022-12-19T21:30:36.970Z,101270.25
2022-12-19T21:33:04.631Z,101266.31
2022-12-19T21:35:34.036Z,101272.13
2022-12-19T21:38:02.592Z,101279.31
2022-12-19T21:40:29.487Z,101277.25
2022-12-19T21:42:56.279Z,101273.16
2022-12-19T21:45:23.052Z,101266.41
2022-12-19T21:47:50.386Z,101268.38
2022-12-19T21:50:17.849Z,101259.38
2022-12-19T21:52:44.713Z,101253.97
2022-12-19T21:55:12.777Z,101257.75
2022-12-19T21:57:40.223Z,101256.81
2022-12-19T22:00:10.035Z,101256.91
2022-12-19T22:02:37.115Z,101249.81
2022-12-19T22:05:05.338Z,101247.47
2022-12-19T22:07:32.705Z,101245.75
2022-12-19T22:09:59.409Z,101244.41
2022-12-19T22:12:27.519Z,101250.91
2022-12-19T22:14:54.253Z,101235.19
2022-12-19T22:17:21.200Z,101243.72
2022-12-19T22:19:48.065Z,101239.94
2022-12-19T22:22:14.878Z,101236.53
2022-12-19T22:24:41.680Z,101235.50
2022-12-19T22:27:08.532Z,101242.66
2022-12-19T22:29:37.489Z,101236.53
2022-12-19T22:32:05.252Z,101232.91
2022-12-19T22:34:32.161Z,101224.28
2022-12-19T22:36:58.967Z,101238.59
2022-12-19T22:39:25.730Z,101233.63
2022-12-19T22:41:52.694Z,101234.56
2022-12-19T22:44:21.615Z,101233.88
2022-12-19T22:46:50.335Z,101229.25
2022-12-19T22:49:17.250Z,101223.38
2022-12-19T22:51:44.629Z,101218.25
2022-12-19T22:54:12.566Z,101228.69
2022-12-19T22:56:40.299Z,101210.38
2022-12-19T22:59:08.823Z,101224.41
2022-12-19T23:01:38.248Z,101218.78
2022-12-19T23:04:08.850Z,101221.75
2022-12-19T23:06:37.346Z,101216.69
2022-12-19T23:09:04.944Z,101229.91
2022-12-19T23:11:33.545Z,101210.66
2022-12-19T23:14:01.061Z,101225.38
2022-12-19T23:16:27.971Z,101220.59
2022-12-19T23:18:54.861Z,101222.03
2022-12-19T23:21:24.748Z,101225.25
2022-12-19T23:23:54.334Z,101227.09
2022-12-19T23:26:22.930Z,101227.22
2022-12-19T23:28:51.944Z,101213.81
2022-12-19T23:31:18.971Z,101222.38
2022-12-19T23:33:45.929Z,101217.06
2022-12-19T23:36:12.926Z,101201.81
2022-12-19T23:38:43.506Z,101210.53
2022-12-19T23:41:13.094Z,101198.91
2022-12-19T23:43:40.323Z,101188.56
2022-12-19T23:46:08.333Z,101186.84
2022-12-19T23:48:35.391Z,101188.06
2022-12-19T23:51:04.800Z,101186.53
2022-12-19T23:53:31.981Z,101199.19
2022-12-19T23:56:01.755Z,101194.66
2022-12-19T23:58:28.548Z,101194.47
